createdAt,value
2023-05-05T00:02:06.513Z,46.30
2023-05-05T00:04:32.840Z,45.36
2023-05-05T00:06:59.164Z,44.49
2023-05-05T00:09:25.460Z,44.26
2023-05-05T00:11:51.764Z,43.66
2023-05-05T00:14:18.094Z,43.29
2023-05-05T00:16:44.451Z,43.39
2023-05-05T00:19:11.201Z,42.81
2023-05-05T00:21:37.542Z,42.70
2023-05-05T00:24:03.890Z,42.57
2023-05-05T00:26:30.242Z,42.70
2023-05-05T00:28:56.569Z,42.78
2023-05-05T00:31:22.893Z,42.56
2023-05-05T00:33:49.269Z,42.49
2023-05-05T00:36:15.601Z,42.38
2023-05-05T00:38:41.935Z,41.69
2023-05-05T00:41:08.238Z,41.79
2023-05-05T00:43:34.564Z,41.97
2023-05-05T00:46:00.915Z,41.44
2023-05-05T00:48:27.268Z,41.61
2023-05-05T00:50:53.588Z,41.64
2023-05-05T00:53:19.897Z,41.25
2023-05-05T00:55:46.209Z,41.59
2023-05-05T00:58:12.524Z,41.75
2023-05-05T01:00:38.838Z,41.51
2023-05-05T01:03:05.269Z,41.50
2023-05-05T01:05:31.670Z,41.77
2023-05-05T01:07:58.000Z,41.69
2023-05-05T01:10:24.543Z,41.86
2023-05-05T01:12:51.109Z,41.80
2023-05-05T01:15:17.464Z,42.20
2023-05-05T01:17:43.790Z,42.16
2023-05-05T01:20:10.299Z,42.43
2023-05-05T01:22:36.704Z,42.76
2023-05-05T01:25:03.024Z,43.13
2023-05-05T01:27:29.377Z,42.78
2023-05-05T01:29:55.694Z,42.32
2023-05-05T01:32:22.027Z,42.07
2023-05-05T01:34:48.345Z,42.13
2023-05-05T01:37:14.672Z,42.35
2023-05-05T01:39:41.003Z,42.55
2023-05-05T01:42:07.313Z,42.21
2023-05-05T01:44:33.647Z,42.46
2023-05-05T01:46:59.978Z,42.33
2023-05-05T01:49:26.299Z,42.70
2023-05-05T01:51:52.620Z,42.67
2023-05-05T01:54:18.940Z,42.50
2023-05-05T01:56:45.241Z,42.41
2023-05-05T01:59:11.570Z,42.27
2023-05-05T02:01:37.942Z,42.84
2023-05-05T02:04:04.302Z,42.83
2023-05-05T02:06:30.620Z,42.75
2023-05-05T02:08:56.944Z,42.73
2023-05-05T02:11:23.252Z,42.96
2023-05-05T02:13:49.582Z,43.17
2023-05-05T02:16:15.977Z,43.65
2023-05-05T02:18:42.312Z,44.94
2023-05-05T02:21:08.621Z,46.06
2023-05-05T02:23:34.956Z,46.52
2023-05-05T02:26:01.285Z,46.62
2023-05-05T02:28:27.592Z,46.00
2023-05-05T02:30:53.911Z,46.16
2023-05-05T02:33:20.231Z,46.70
2023-05-05T02:35:46.562Z,45.95
2023-05-05T02:38:12.879Z,44.67
2023-05-05T02:40:39.204Z,44.02
2023-05-05T02:43:05.571Z,43.81
2023-05-05T02:45:31.910Z,43.59
2023-05-05T02:47:58.266Z,43.52
2023-05-05T02:50:24.589Z,43.35
2023-05-05T02:52:50.912Z,43.62
2023-05-05T02:55:17.216Z,43.79
2023-05-05T02:57:43.534Z,43.79
2023-05-05T03:00:09.972Z,44.12
2023-05-05T03:02:36.492Z,43.93
2023-05-05T03:05:02.860Z,44.08
2023-05-05T03:07:29.222Z,44.07
2023-05-05T03:09:55.544Z,43.82
2023-05-05T03:12:21.868Z,43.58
2023-05-05T03:14:48.173Z,43.54
2023-05-05T03:17:14.500Z,43.79
2023-05-05T03:19:40.872Z,44.04
2023-05-05T03:22:07.219Z,44.69
2023-05-05T03:24:33.571Z,44.42
2023-05-05T03:26:59.902Z,44.66
2023-05-05T03:29:26.224Z,44.39
2023-05-05T03:31:52.576Z,44.45
2023-05-05T03:34:18.997Z,44.98
2023-05-05T03:36:45.338Z,45.13
2023-05-05T03:39:11.649Z,44.95
2023-05-05T03:41:37.958Z,45.28
2023-05-05T03:44:04.254Z,45.25
2023-05-05T03:46:30.550Z,44.88
2023-05-05T03:48:56.868Z,44.47
2023-05-05T03:51:23.181Z,44.91
2023-05-05T03:53:49.492Z,44.77
2023-05-05T03:56:15.790Z,45.19
2023-05-05T03:58:42.121Z,45.40
2023-05-05T04:01:08.433Z,45.18
2023-05-05T04:03:34.827Z,45.88
2023-05-05T04:06:01.180Z,45.50
2023-05-05T04:08:27.519Z,45.08
2023-05-05T04:10:53.847Z,45.04
2023-05-05T04:13:20.159Z,45.21
2023-05-05T04:15:46.524Z,45.46
2023-05-05T04:18:12.896Z,45.16
2023-05-05T04:20:39.209Z,44.93
2023-05-05T04:23:05.517Z,45.00
2023-05-05T04:25:31.840Z,44.63
2023-05-05T04:27:58.146Z,45.07
2023-05-05T04:30:24.464Z,44.67
2023-05-05T04:32:50.812Z,44.70
2023-05-05T04:35:17.126Z,44.56
2023-05-05T04:37:43.441Z,44.64
2023-05-05T04:40:09.841Z,44.78
2023-05-05T04:42:36.346Z,44.84
2023-05-05T04:45:02.659Z,44.60
2023-05-05T04:47:28.995Z,44.64
2023-05-05T04:49:55.340Z,44.87
2023-05-05T04:52:21.655Z,44.60
2023-05-05T04:54:47.980Z,44.90
2023-05-05T04:57:14.307Z,44.76
2023-05-05T04:59:40.621Z,44.90
2023-05-05T05:02:06.974Z,45.01
2023-05-05T05:04:33.313Z,45.22
2023-05-05T05:06:59.644Z,45.00
2023-05-05T05:09:25.991Z,44.96
2023-05-05T05:11:52.334Z,45.30
2023-05-05T05:14:18.647Z,45.45
2023-05-05T05:16:45.011Z,45.24
2023-05-05T05:19:11.385Z,45.25
2023-05-05T05:21:37.709Z,45.08
2023-05-05T05:24:04.027Z,45.25
2023-05-05T05:26:30.342Z,45.09
2023-05-05T05:28:56.649Z,45.05
2023-05-05T05:31:22.979Z,45.83
2023-05-05T05:33:49.308Z,45.75
2023-05-05T05:36:15.625Z,46.28
2023-05-05T05:38:41.957Z,46.26
2023-05-05T05:41:08.297Z,46.43
2023-05-05T05:43:34.630Z,47.55
2023-05-05T05:46:01.014Z,46.97
2023-05-05T05:48:27.362Z,46.30
2023-05-05T05:50:53.668Z,47.77
2023-05-05T05:53:20.004Z,48.23
2023-05-05T05:55:46.329Z,47.92
2023-05-05T05:58:12.634Z,47.97
2023-05-05T06:00:38.961Z,47.46
2023-05-05T06:03:05.390Z,47.90
2023-05-05T06:05:31.864Z,47.79
2023-05-05T06:07:58.203Z,47.29
2023-05-05T06:10:27.485Z,46.98
2023-05-05T06:12:54.593Z,46.68
2023-05-05T06:15:20.964Z,46.06
2023-05-05T06:17:47.292Z,46.00
2023-05-05T06:20:13.653Z,45.60
2023-05-05T06:22:39.998Z,44.84
2023-05-05T06:25:06.298Z,44.95
2023-05-05T06:27:32.624Z,44.66
2023-05-05T06:29:58.951Z,45.66
2023-05-05T06:32:25.276Z,46.13
2023-05-05T06:34:51.641Z,45.49
2023-05-05T06:37:17.983Z,44.99
2023-05-05T06:39:44.312Z,45.66
2023-05-05T06:42:10.624Z,44.78
2023-05-05T06:44:36.936Z,45.16
2023-05-05T06:47:03.303Z,44.55
2023-05-05T06:49:29.638Z,44.83
2023-05-05T06:51:55.957Z,44.88
2023-05-05T06:54:22.304Z,45.46
2023-05-05T06:56:48.634Z,45.51
2023-05-05T06:59:14.963Z,45.81
2023-05-05T07:01:41.269Z,44.76
2023-05-05T07:04:07.639Z,44.69
2023-05-05T07:06:34.016Z,44.04
2023-05-05T07:09:00.335Z,43.97
2023-05-05T07:11:26.656Z,43.46
2023-05-05T07:13:53.194Z,43.96
2023-05-05T07:16:19.578Z,43.60
2023-05-05T07:18:45.916Z,42.82
2023-05-05T07:21:12.249Z,42.61
2023-05-05T07:23:38.564Z,42.47
2023-05-05T07:26:04.890Z,42.91
2023-05-05T07:28:31.218Z,42.80
2023-05-05T07:30:57.527Z,42.47
2023-05-05T07:33:23.844Z,42.39
2023-05-05T07:35:50.172Z,41.69
2023-05-05T07:38:16.488Z,41.34
2023-05-05T07:40:42.795Z,42.32
2023-05-05T07:43:09.121Z,43.00
2023-05-05T07:45:35.433Z,41.74
2023-05-05T07:48:01.828Z,43.13
2023-05-05T07:50:28.155Z,42.17
2023-05-05T07:53:02.449Z,42.41
2023-05-05T07:55:36.812Z,42.19
2023-05-05T07:58:03.184Z,42.16
2023-05-05T08:00:29.509Z,42.28
2023-05-05T08:02:55.896Z,41.78
2023-05-05T08:05:22.381Z,41.34
2023-05-05T08:07:48.681Z,41.07
2023-05-05T08:10:15.005Z,42.00
2023-05-05T08:12:41.351Z,41.61
2023-05-05T08:15:08.015Z,41.20
2023-05-05T08:17:34.633Z,40.74
2023-05-05T08:20:00.981Z,41.07
2023-05-05T08:22:27.285Z,41.02
2023-05-05T08:24:53.590Z,41.56
2023-05-05T08:27:19.902Z,41.48
2023-05-05T08:29:46.236Z,40.50
2023-05-05T08:32:12.569Z,39.43
2023-05-05T08:34:38.875Z,39.53
2023-05-05T08:37:05.187Z,39.75
2023-05-05T08:39:31.513Z,39.82
2023-05-05T08:41:57.824Z,39.83
2023-05-05T08:44:24.156Z,39.97
2023-05-05T08:46:50.522Z,40.68
2023-05-05T08:49:16.952Z,40.69
2023-05-05T08:51:43.294Z,39.69
2023-05-05T08:54:09.618Z,40.16
2023-05-05T08:56:35.950Z,39.42
2023-05-05T08:59:02.278Z,39.87
2023-05-05T09:01:28.723Z,38.51
2023-05-05T09:03:55.084Z,37.60
2023-05-05T09:06:21.410Z,38.92
2023-05-05T09:08:47.744Z,38.46
2023-05-05T09:11:14.074Z,37.89
2023-05-05T09:13:40.406Z,39.19
2023-05-05T09:16:06.754Z,38.08
2023-05-05T09:18:33.085Z,37.71
2023-05-05T09:20:59.599Z,37.73
2023-05-05T09:23:26.016Z,37.95
2023-05-05T09:25:52.329Z,39.79
2023-05-05T09:28:18.696Z,39.62
2023-05-05T09:30:45.043Z,39.47
2023-05-05T09:33:11.510Z,37.30
2023-05-05T09:35:37.868Z,36.62
2023-05-05T09:38:04.177Z,38.11
2023-05-05T09:40:30.493Z,37.96
2023-05-05T09:42:56.820Z,37.54
2023-05-05T09:45:23.158Z,38.35
2023-05-05T09:47:49.547Z,36.16
2023-05-05T09:50:16.144Z,34.65
2023-05-05T09:52:42.659Z,35.50
2023-05-05T09:55:08.986Z,35.27
2023-05-05T09:57:35.314Z,34.74
2023-05-05T10:00:01.632Z,35.33
2023-05-05T10:02:27.962Z,33.81
2023-05-05T10:04:54.335Z,35.23
2023-05-05T10:07:20.657Z,35.52
2023-05-05T10:09:46.990Z,34.02
2023-05-05T10:12:13.321Z,34.45
2023-05-05T10:14:39.641Z,34.01
2023-05-05T10:17:05.954Z,33.47
2023-05-05T10:19:32.276Z,32.53
2023-05-05T10:21:58.591Z,32.50
2023-05-05T10:24:24.952Z,33.66
2023-05-05T10:26:51.286Z,34.46
2023-05-05T10:29:17.630Z,34.00
2023-05-05T10:31:43.986Z,33.61
2023-05-05T10:34:10.514Z,34.03
2023-05-05T10:36:36.925Z,33.79
2023-05-05T10:39:03.273Z,34.78
2023-05-05T10:41:29.645Z,33.56
2023-05-05T10:43:55.962Z,32.65
2023-05-05T10:46:22.319Z,32.15
2023-05-05T10:48:48.728Z,33.08
2023-05-05T10:51:23.871Z,33.79
2023-05-05T10:53:57.773Z,32.94
2023-05-05T10:56:24.102Z,33.61
2023-05-05T10:58:59.742Z,33.30
2023-05-05T11:01:26.773Z,32.43
2023-05-05T11:03:53.108Z,32.96
2023-05-05T11:06:19.499Z,32.07
2023-05-05T11:08:45.859Z,32.46
2023-05-05T11:11:12.176Z,32.24
2023-05-05T11:13:38.493Z,32.25
2023-05-05T11:16:04.900Z,33.47
2023-05-05T11:18:31.236Z,32.73
2023-05-05T11:20:57.538Z,32.29
2023-05-05T11:23:23.858Z,31.82
2023-05-05T11:25:50.170Z,32.83
2023-05-05T11:28:16.525Z,33.78
2023-05-05T11:30:42.863Z,32.96
2023-05-05T11:33:09.230Z,33.17
2023-05-05T11:35:35.647Z,32.98
2023-05-05T11:38:01.966Z,32.83
2023-05-05T11:40:28.385Z,32.15
2023-05-05T11:42:54.696Z,32.80
2023-05-05T11:45:21.023Z,31.67
2023-05-05T11:47:47.384Z,33.12
2023-05-05T11:50:13.698Z,34.40
2023-05-05T11:52:40.024Z,32.89
2023-05-05T11:55:06.349Z,31.29
2023-05-05T11:57:32.651Z,30.92
2023-05-05T11:59:58.955Z,30.89
2023-05-05T12:02:25.383Z,31.55
2023-05-05T12:04:51.800Z,29.24
2023-05-05T12:07:18.201Z,31.15
2023-05-05T12:09:44.561Z,29.54
2023-05-05T12:12:10.878Z,29.52
2023-05-05T12:14:37.203Z,31.21
2023-05-05T12:17:03.513Z,30.34
2023-05-05T12:19:29.822Z,31.24
2023-05-05T12:21:56.127Z,31.63
2023-05-05T12:24:22.453Z,31.99
2023-05-05T12:26:48.757Z,30.92
2023-05-05T12:29:15.076Z,31.48
2023-05-05T12:31:41.692Z,31.83
2023-05-05T12:34:08.106Z,31.79
2023-05-05T12:36:34.410Z,31.09
2023-05-05T12:39:00.762Z,32.20
2023-05-05T12:41:27.091Z,32.83
2023-05-05T12:43:53.404Z,33.70
2023-05-05T12:46:19.762Z,34.44
2023-05-05T12:48:48.277Z,35.49
2023-05-05T12:51:14.935Z,34.55
2023-05-05T12:53:41.259Z,36.50
2023-05-05T12:56:07.580Z,36.13
2023-05-05T12:58:33.882Z,34.67
2023-05-05T13:01:00.294Z,36.00
2023-05-05T13:03:26.830Z,35.81
2023-05-05T13:05:53.249Z,35.64
2023-05-05T13:08:19.573Z,36.35
2023-05-05T13:10:45.871Z,35.32
2023-05-05T13:13:12.291Z,35.73
2023-05-05T13:15:38.720Z,36.42
2023-05-05T13:18:05.109Z,36.13
2023-05-05T13:20:31.458Z,35.89
2023-05-05T13:22:57.763Z,36.06
2023-05-05T13:25:24.079Z,36.56
2023-05-05T13:27:50.408Z,36.64
2023-05-05T13:30:16.755Z,36.30
2023-05-05T13:32:43.089Z,36.80
2023-05-05T13:35:09.641Z,38.43
2023-05-05T13:37:36.163Z,40.11
2023-05-05T13:40:02.494Z,39.97
2023-05-05T13:42:28.797Z,40.69
2023-05-05T13:44:55.098Z,40.77
2023-05-05T13:47:21.475Z,41.11
2023-05-05T13:49:47.867Z,40.63
2023-05-05T13:52:14.185Z,40.54
2023-05-05T13:54:40.532Z,41.14
2023-05-05T13:57:06.877Z,41.53
2023-05-05T13:59:33.193Z,41.04
2023-05-05T14:01:59.502Z,41.62
2023-05-05T14:04:25.941Z,41.28
2023-05-05T14:06:52.311Z,40.72
2023-05-05T14:09:18.638Z,40.54
2023-05-05T14:11:44.983Z,41.07
2023-05-05T14:14:11.310Z,39.91
2023-05-05T14:16:37.667Z,40.02
2023-05-05T14:19:04.009Z,40.27
2023-05-05T14:21:30.390Z,40.00
2023-05-05T14:23:56.721Z,41.41
2023-05-05T14:26:23.071Z,39.53
2023-05-05T14:28:50.093Z,38.38
2023-05-05T14:31:16.522Z,39.03
2023-05-05T14:33:42.844Z,37.03
2023-05-05T14:36:09.185Z,37.99
2023-05-05T14:38:35.578Z,37.84
2023-05-05T14:41:01.974Z,38.12
2023-05-05T14:43:28.324Z,38.41
2023-05-05T14:45:54.670Z,36.39
2023-05-05T14:48:21.011Z,35.43
2023-05-05T14:50:47.325Z,34.63
2023-05-05T14:53:13.633Z,35.68
2023-05-05T14:55:39.939Z,35.00
2023-05-05T14:58:06.416Z,35.59
2023-05-05T15:00:32.737Z,35.45
2023-05-05T15:02:59.239Z,36.13
2023-05-05T15:05:25.626Z,35.75
2023-05-05T15:07:52.065Z,35.86
2023-05-05T15:10:19.745Z,35.78
2023-05-05T15:12:48.119Z,36.55
2023-05-05T15:15:14.483Z,37.28
2023-05-05T15:17:40.836Z,37.74
2023-05-05T15:20:07.151Z,36.90
2023-05-05T15:22:33.450Z,37.53
2023-05-05T15:24:59.778Z,38.72
2023-05-05T15:27:26.083Z,37.58
2023-05-05T15:29:52.395Z,37.88
2023-05-05T15:32:18.732Z,37.98
2023-05-05T15:34:45.072Z,37.44
2023-05-05T15:37:11.390Z,37.72
2023-05-05T15:39:37.728Z,37.09
2023-05-05T15:42:04.042Z,37.95
2023-05-05T15:44:30.361Z,37.36
2023-05-05T15:46:56.732Z,37.78
2023-05-05T15:49:23.105Z,37.32
2023-05-05T15:51:49.431Z,37.37
2023-05-05T15:54:15.784Z,36.67
2023-05-05T15:56:42.097Z,37.04
2023-05-05T15:59:08.421Z,37.48
2023-05-05T16:01:34.794Z,35.37
2023-05-05T16:04:01.219Z,36.26
2023-05-05T16:06:27.536Z,35.58
2023-05-05T16:08:53.861Z,36.38
2023-05-05T16:11:22.381Z,37.25
2023-05-05T16:13:48.828Z,37.85
2023-05-05T16:16:15.537Z,38.53
2023-05-05T16:18:41.937Z,38.93
2023-05-05T16:21:08.245Z,38.44
2023-05-05T16:23:34.545Z,39.12
2023-05-05T16:26:00.859Z,39.16
2023-05-05T16:28:27.177Z,39.79
2023-05-05T16:30:53.495Z,40.62
2023-05-05T16:33:19.819Z,39.96
2023-05-05T16:35:46.131Z,40.01
2023-05-05T16:38:12.438Z,41.01
2023-05-05T16:40:38.741Z,39.50
2023-05-05T16:43:05.063Z,39.95
2023-05-05T16:45:31.372Z,40.37
2023-05-05T16:47:57.732Z,39.74
2023-05-05T16:50:24.095Z,36.48
2023-05-05T16:52:50.426Z,37.13
2023-05-05T16:55:16.765Z,36.04
2023-05-05T16:57:43.121Z,36.73
2023-05-05T17:00:09.465Z,36.69
2023-05-05T17:02:35.822Z,37.23
2023-05-05T17:05:02.181Z,36.92
2023-05-05T17:07:28.519Z,36.77
2023-05-05T17:09:54.861Z,36.85
2023-05-05T17:12:21.167Z,36.52
2023-05-05T17:14:47.466Z,36.05
2023-05-05T17:17:13.781Z,36.24
2023-05-05T17:19:40.122Z,36.68
2023-05-05T17:22:06.445Z,34.64
2023-05-05T17:24:32.750Z,34.83
2023-05-05T17:26:59.064Z,34.87
2023-05-05T17:29:25.375Z,34.15
2023-05-05T17:31:51.751Z,34.26
2023-05-05T17:34:18.142Z,34.87
2023-05-05T17:36:44.472Z,34.13
2023-05-05T17:39:10.775Z,33.99
2023-05-05T17:41:37.084Z,33.99
2023-05-05T17:44:03.408Z,35.02
2023-05-05T17:46:29.794Z,36.05
2023-05-05T17:48:56.161Z,34.43
2023-05-05T17:51:22.517Z,34.99
2023-05-05T17:53:48.851Z,34.10
2023-05-05T17:56:15.221Z,35.80
2023-05-05T17:58:41.538Z,35.65
2023-05-05T18:01:07.937Z,35.18
2023-05-05T18:03:34.411Z,35.44
2023-05-05T18:06:00.856Z,36.22
2023-05-05T18:08:27.169Z,36.68
2023-05-05T18:10:53.474Z,36.79
2023-05-05T18:13:19.905Z,36.48
2023-05-05T18:15:46.483Z,36.95
2023-05-05T18:18:12.873Z,36.56
2023-05-05T18:20:39.287Z,36.65
2023-05-05T18:23:05.601Z,37.26
2023-05-05T18:25:31.946Z,36.97
2023-05-05T18:27:59.351Z,37.24
2023-05-05T18:30:25.688Z,37.85
2023-05-05T18:32:52.035Z,37.65
2023-05-05T18:35:18.390Z,38.18
2023-05-05T18:37:44.717Z,37.48
2023-05-05T18:40:11.039Z,37.58
2023-05-05T18:42:37.345Z,38.42
2023-05-05T18:45:03.681Z,37.99
2023-05-05T18:47:30.019Z,38.37
2023-05-05T18:49:56.361Z,38.64
2023-05-05T18:52:22.717Z,39.15
2023-05-05T18:54:49.040Z,39.28
2023-05-05T18:57:15.346Z,39.10
2023-05-05T18:59:41.666Z,39.46
2023-05-05T19:02:07.980Z,39.39
2023-05-05T19:04:34.321Z,39.62
2023-05-05T19:07:00.686Z,39.54
2023-05-05T19:09:27.029Z,38.97
2023-05-05T19:11:53.329Z,38.92
2023-05-05T19:14:19.646Z,38.78
2023-05-05T19:16:46.094Z,38.25
2023-05-05T19:19:12.441Z,39.25
2023-05-05T19:21:38.764Z,39.00
2023-05-05T19:24:05.064Z,39.34
2023-05-05T19:26:31.398Z,39.62
2023-05-05T19:28:57.723Z,40.02
2023-05-05T19:31:24.044Z,40.37
2023-05-05T19:33:50.404Z,39.69
2023-05-05T19:36:16.725Z,39.12
2023-05-05T19:38:43.024Z,39.54
2023-05-05T19:41:09.348Z,39.94
2023-05-05T19:43:35.658Z,39.70
2023-05-05T19:46:02.007Z,39.92
2023-05-05T19:48:28.348Z,39.39
2023-05-05T19:50:54.669Z,38.99
2023-05-05T19:53:20.979Z,39.35
2023-05-05T19:55:47.282Z,39.74
2023-05-05T19:58:13.620Z,39.61
2023-05-05T20:00:39.937Z,39.06
2023-05-05T20:03:06.279Z,39.46
2023-05-05T20:05:32.678Z,39.63
2023-05-05T20:07:59.000Z,40.26
2023-05-05T20:10:25.309Z,40.54
2023-05-05T20:12:51.688Z,41.73
2023-05-05T20:15:18.039Z,42.32
2023-05-05T20:17:44.376Z,41.91
2023-05-05T20:20:10.836Z,42.47
2023-05-05T20:22:38.697Z,43.41
2023-05-05T20:25:05.784Z,42.86
2023-05-05T20:27:32.986Z,42.15
2023-05-05T20:30:01.148Z,43.52
2023-05-05T20:32:27.491Z,45.48
2023-05-05T20:34:53.833Z,46.13
2023-05-05T20:37:20.183Z,46.55
2023-05-05T20:39:46.529Z,47.70
2023-05-05T20:42:12.833Z,47.75
2023-05-05T20:44:39.174Z,47.96
2023-05-05T20:47:05.521Z,48.22
2023-05-05T20:49:31.897Z,48.19
2023-05-05T20:51:58.298Z,48.74
2023-05-05T20:54:24.620Z,48.67
2023-05-05T20:56:50.940Z,48.49
2023-05-05T20:59:17.264Z,48.62
2023-05-05T21:01:43.616Z,49.29
2023-05-05T21:04:09.937Z,46.84
2023-05-05T21:06:36.237Z,47.86
2023-05-05T21:09:02.562Z,47.45
2023-05-05T21:11:28.877Z,47.94
2023-05-05T21:13:55.182Z,47.97
2023-05-05T21:16:21.532Z,47.70
2023-05-05T21:18:47.880Z,47.70
2023-05-05T21:21:14.181Z,47.90
2023-05-05T21:23:40.487Z,47.61
2023-05-05T21:26:06.856Z,46.63
2023-05-05T21:28:33.188Z,47.02
2023-05-05T21:31:20.548Z,46.26
2023-05-05T21:33:45.812Z,45.56
2023-05-05T21:36:12.133Z,45.32
2023-05-05T21:38:38.451Z,45.23
2023-05-05T21:41:04.824Z,45.69
2023-05-05T21:43:31.171Z,46.37
2023-05-05T21:45:57.553Z,46.07
2023-05-05T21:48:23.924Z,45.96
2023-05-05T21:50:50.273Z,46.11
2023-05-05T21:53:16.586Z,45.35
2023-05-05T21:55:42.887Z,44.93
2023-05-05T21:58:09.195Z,45.27
2023-05-05T22:00:35.509Z,45.52
2023-05-05T22:03:01.928Z,45.56
2023-05-05T22:05:28.297Z,46.37
2023-05-05T22:07:54.624Z,46.86
2023-05-05T22:10:20.933Z,47.68
2023-05-05T22:12:47.298Z,48.15
2023-05-05T22:15:13.622Z,47.28
2023-05-05T22:17:39.945Z,49.62
2023-05-05T22:20:06.486Z,50.52
2023-05-05T22:22:32.933Z,51.31
2023-05-05T22:24:59.269Z,51.78
2023-05-05T22:27:25.573Z,52.42
2023-05-05T22:29:51.994Z,51.85
2023-05-05T22:32:18.362Z,52.31
2023-05-05T22:34:44.673Z,52.92
2023-05-05T22:37:10.987Z,52.90
2023-05-05T22:39:37.322Z,53.19
2023-05-05T22:42:03.649Z,51.92
2023-05-05T22:44:29.986Z,51.85
2023-05-05T22:46:56.504Z,52.43
2023-05-05T22:49:22.917Z,52.78
2023-05-05T22:51:49.289Z,52.72
2023-05-05T22:54:15.591Z,53.08
2023-05-05T22:56:41.904Z,53.48
2023-05-05T22:59:08.254Z,54.14
2023-05-05T23:01:35.036Z,54.26
2023-05-05T23:04:01.347Z,54.59
2023-05-05T23:06:27.684Z,55.12
2023-05-05T23:08:53.997Z,55.60
2023-05-05T23:11:20.309Z,55.86
2023-05-05T23:13:46.617Z,56.03
2023-05-05T23:16:12.940Z,55.50
2023-05-05T23:18:39.265Z,54.87
2023-05-05T23:21:05.639Z,55.37
2023-05-05T23:23:31.967Z,55.64
2023-05-05T23:25:58.295Z,55.85
2023-05-05T23:28:24.612Z,55.93
2023-05-05T23:30:50.949Z,55.79
2023-05-05T23:33:17.308Z,55.14
2023-05-05T23:35:43.653Z,55.36
2023-05-05T23:38:09.955Z,55.53
2023-05-05T23:40:36.261Z,55.11
2023-05-05T23:43:02.579Z,55.22
2023-05-05T23:45:28.902Z,54.87
2023-05-05T23:47:55.236Z,55.11
2023-05-05T23:50:21.626Z,55.17
2023-05-05T23:52:47.933Z,55.52
2023-05-05T23:55:14.255Z,55.33
2023-05-05T23:57:40.586Z,55.08
